Centerville, South Dakota
Current Conditions -  °F | °C
As of 5:15 PM on Wednesday 26 Nov 2014 (Local Time) from KYKN Reporting Station
Clear Clear  
Wind Chill:   Ceiling: Unl
Heat Index: 16°   Visibility: 10mi
Dew Point: 10°   Wind: 6mph
Humidity: 79%   Direction: 300°WNW
Pressure: 30.4"   Gusts: NA
Location:  43.12°N, 96.96°W
Report Text: KYKN 262315Z AUTO 30005KT 10SM CLR M09/M12 A3040 RMK AO1
Loading
Personal Weather Stations






























Interactive Weather Map New forecast layout! Learn more

10-Day Weather Forecast

Advertisements
Track Severe Weather on mobile